Time;durP1;ratioP1;P1;durP2;ratioP2;P2;SDS_P1;SDS_P2;PMS_P1;PMS_P2;Temp;Humidity;BMP_temperature;BMP_pressure;BME280_temperature;BME280_humidity;BME280_pressure;Samples;Min_cycle;Max_cycle;Signal;HPM_P1;HPM_P2
2023/05/03 00:00:49;;;;;;;;;;;15.40;99.90;;;;;;5096839;28;19985;-61
2023/05/03 00:03:14;;;;;;;;;;;15.30;99.90;;;;;;5096877;28;19992;-61
2023/05/03 00:05:40;;;;;;;;;;;15.30;99.90;;;;;;5096780;28;20071;-61
2023/05/03 00:08:06;;;;;;;;;;;15.30;99.90;;;;;;5096587;28;19985;-61
2023/05/03 00:10:32;;;;;;;;;;;15.20;99.90;;;;;;5096539;28;20007;-61
2023/05/03 00:12:57;;;;;;;;;;;15.20;99.90;;;;;;5096680;28;20038;-61
2023/05/03 00:15:23;;;;;;;;;;;15.20;99.90;;;;;;5096485;28;19989;-61
2023/05/03 00:17:48;;;;;;;;;;;15.10;99.90;;;;;;5096640;28;20005;-61
2023/05/03 00:20:14;;;;;;;;;;;15.10;99.90;;;;;;5096727;28;19997;-61
2023/05/03 00:22:40;;;;;;;;;;;15.10;99.90;;;;;;5096336;28;20393;-62
2023/05/03 00:25:08;;;;;;;;;;;15.10;99.90;;;;;;5096424;28;20458;-61
2023/05/03 00:27:35;;;;;;;;;;;15.00;99.90;;;;;;5096397;28;20504;-61
2023/05/03 00:30:00;;;;;;;;;;;15.00;99.90;;;;;;5096131;28;20079;-61
2023/05/03 00:32:26;;;;;;;;;;;14.90;99.90;;;;;;5096501;28;20127;-62
2023/05/03 00:34:52;;;;;;;;;;;15.00;99.90;;;;;;5096190;28;19985;-61
2023/05/03 00:37:18;;;;;;;;;;;15.00;99.90;;;;;;5096056;28;20009;-61
2023/05/03 00:39:43;;;;;;;;;;;15.00;99.90;;;;;;5095632;28;20027;-61
2023/05/03 00:42:09;;;;;;;;;;;14.90;99.90;;;;;;5095934;28;20004;-61
2023/05/03 00:44:34;;;;;;;;;;;15.00;99.90;;;;;;5095942;28;20046;-61
2023/05/03 00:47:00;;;;;;;;;;;15.00;99.90;;;;;;5095855;28;19985;-61
2023/05/03 00:49:26;;;;;;;;;;;15.00;99.90;;;;;;5095991;28;20410;-61
2023/05/03 00:51:52;;;;;;;;;;;15.00;99.90;;;;;;5095380;28;19989;-61
2023/05/03 00:54:18;;;;;;;;;;;14.90;99.90;;;;;;5095528;28;19989;-61
2023/05/03 00:56:44;;;;;;;;;;;14.80;99.90;;;;;;5095683;28;20012;-61
2023/05/03 00:59:10;;;;;;;;;;;14.80;99.90;;;;;;5095733;28;19985;-61
2023/05/03 01:01:36;;;;;;;;;;;14.90;99.90;;;;;;5095617;28;20324;-61
2023/05/03 01:04:03;;;;;;;;;;;14.90;99.90;;;;;;5095788;28;19992;-62
2023/05/03 01:06:32;;;;;;;;;;;14.90;99.90;;;;;;5095504;28;20088;-61
2023/05/03 01:08:58;;;;;;;;;;;15.00;99.90;;;;;;5095264;28;19996;-61
2023/05/03 01:11:36;;;;;;;;;;;15.00;99.90;;;;;;5095464;28;20451;-61
2023/05/03 01:14:11;;;;;;;;;;;15.00;99.90;;;;;;5095330;28;19989;-61
2023/05/03 01:16:43;;;;;;;;;;;15.00;99.90;;;;;;5095576;28;20008;-61
2023/05/03 01:19:32;;;;;;;;;;;15.00;99.90;;;;;;5095582;28;20042;-60
2023/05/03 01:22:11;;;;;;;;;;;15.00;99.90;;;;;;5089718;28;19993;-61
2023/05/03 01:24:37;;;;;;;;;;;15.00;99.90;;;;;;5095276;28;20027;-61
2023/05/03 01:27:03;;;;;;;;;;;14.90;99.90;;;;;;5095090;28;19992;-61
2023/05/03 01:29:29;;;;;;;;;;;15.00;99.90;;;;;;5095392;28;19989;-61
2023/05/03 01:31:57;;;;;;;;;;;15.00;99.90;;;;;;5095056;28;19995;-60
2023/05/03 01:34:29;;;;;;;;;;;15.00;99.90;;;;;;5094930;28;20501;-61
2023/05/03 01:36:57;;;;;;;;;;;15.00;99.90;;;;;;5095182;28;20009;-62
2023/05/03 01:39:30;;;;;;;;;;;15.00;99.90;;;;;;5094580;28;20099;-61
2023/05/03 01:41:56;;;;;;;;;;;14.90;99.90;;;;;;5095042;28;20023;-62
2023/05/03 01:44:21;;;;;;;;;;;15.00;99.90;;;;;;5094882;28;20435;-60
2023/05/03 01:46:48;;;;;;;;;;;15.00;99.90;;;;;;5094782;28;19992;-60
2023/05/03 01:49:14;;;;;;;;;;;15.00;99.90;;;;;;5095037;28;19989;-61
2023/05/03 01:51:39;;;;;;;;;;;15.10;99.90;;;;;;5094618;28;19986;-61
2023/05/03 01:54:05;;;;;;;;;;;15.00;99.90;;;;;;5093407;28;20516;-61
2023/05/03 01:56:33;;;;;;;;;;;15.00;99.90;;;;;;5094686;28;20095;-60
2023/05/03 01:58:58;;;;;;;;;;;15.00;99.90;;;;;;5094545;28;19990;-62
2023/05/03 02:01:24;;;;;;;;;;;15.00;99.90;;;;;;5094544;28;19996;-61
2023/05/03 02:03:49;;;;;;;;;;;15.00;99.90;;;;;;5093549;28;20018;-61
2023/05/03 02:06:15;;;;;;;;;;;15.00;99.90;;;;;;5094368;28;20034;-62
2023/05/03 02:08:40;;;;;;;;;;;15.00;99.90;;;;;;5094425;28;20028;-62
2023/05/03 02:11:06;;;;;;;;;;;15.00;99.90;;;;;;5094319;28;19985;-60
2023/05/03 02:13:31;;;;;;;;;;;14.90;99.90;;;;;;5094393;28;19993;-61
2023/05/03 02:15:57;;;;;;;;;;;14.90;99.90;;;;;;5094315;28;19985;-62
2023/05/03 02:18:23;;;;;;;;;;;14.80;99.90;;;;;;5094132;28;20103;-61
2023/05/03 02:20:49;;;;;;;;;;;14.80;99.90;;;;;;5094002;28;20076;-61
2023/05/03 02:23:15;;;;;;;;;;;14.80;99.90;;;;;;5094180;28;20012;-61
2023/05/03 02:25:40;;;;;;;;;;;14.80;99.90;;;;;;5094137;28;19992;-60
2023/05/03 02:28:06;;;;;;;;;;;14.60;99.90;;;;;;5094035;28;19996;-61
2023/05/03 02:30:32;;;;;;;;;;;14.50;99.90;;;;;;5094346;28;19989;-61
2023/05/03 02:32:58;;;;;;;;;;;14.50;99.90;;;;;;5094318;28;20031;-61
2023/05/03 02:35:24;;;;;;;;;;;14.50;99.90;;;;;;5094064;28;20419;-61
2023/05/03 02:37:50;;;;;;;;;;;14.50;99.90;;;;;;5093891;28;20023;-61
2023/05/03 02:40:15;;;;;;;;;;;14.50;99.90;;;;;;5093802;28;20437;-61
2023/05/03 02:42:41;;;;;;;;;;;14.50;99.90;;;;;;5094003;28;20009;-61
2023/05/03 02:45:07;;;;;;;;;;;14.50;99.90;;;;;;5093998;28;19989;-61
2023/05/03 02:47:32;;;;;;;;;;;14.40;99.90;;;;;;5093804;28;20358;-61
2023/05/03 02:49:58;;;;;;;;;;;14.40;99.90;;;;;;5093530;28;19989;-61
2023/05/03 02:52:23;;;;;;;;;;;14.40;99.90;;;;;;5093795;28;19985;-61
2023/05/03 02:54:49;;;;;;;;;;;14.30;99.90;;;;;;5093796;28;19985;-61
2023/05/03 02:57:14;;;;;;;;;;;14.30;99.90;;;;;;5093754;28;20005;-61
2023/05/03 02:59:40;;;;;;;;;;;14.30;99.90;;;;;;5093632;28;19985;-61
2023/05/03 03:02:05;;;;;;;;;;;14.30;99.90;;;;;;5093815;28;20436;-61
2023/05/03 03:04:31;;;;;;;;;;;14.30;99.90;;;;;;5093459;28;20055;-61
2023/05/03 03:06:57;;;;;;;;;;;14.30;99.90;;;;;;5093567;28;20008;-61
2023/05/03 03:09:22;;;;;;;;;;;14.20;99.90;;;;;;5093633;28;20084;-61
2023/05/03 03:11:50;;;;;;;;;;;14.20;99.90;;;;;;5093651;28;19989;-61
2023/05/03 03:14:15;;;;;;;;;;;14.10;99.90;;;;;;5094294;28;19989;-61
2023/05/03 03:16:41;;;;;;;;;;;14.10;99.90;;;;;;5097586;28;20011;-61
2023/05/03 03:19:06;;;;;;;;;;;14.00;99.90;;;;;;5097570;28;20043;-60
2023/05/03 03:21:33;;;;;;;;;;;14.10;99.90;;;;;;5097563;28;19985;-61
2023/05/03 03:23:58;;;;;;;;;;;14.20;99.90;;;;;;5097518;28;19993;-61
2023/05/03 03:26:25;;;;;;;;;;;14.30;99.90;;;;;;5097558;28;20118;-61
2023/05/03 03:28:50;;;;;;;;;;;14.30;99.90;;;;;;5097472;28;19985;-61
2023/05/03 03:31:17;;;;;;;;;;;14.30;99.90;;;;;;5097288;28;20388;-61
2023/05/03 03:33:42;;;;;;;;;;;14.40;99.90;;;;;;5097413;28;20397;-61
2023/05/03 03:36:09;;;;;;;;;;;14.40;99.90;;;;;;5097278;28;20000;-61
2023/05/03 03:38:34;;;;;;;;;;;14.40;99.90;;;;;;5096931;28;20075;-61
2023/05/03 03:41:00;;;;;;;;;;;14.40;99.90;;;;;;5097176;28;20359;-61
2023/05/03 03:43:25;;;;;;;;;;;14.30;99.90;;;;;;5097070;28;20011;-61
2023/05/03 03:45:51;;;;;;;;;;;14.30;99.90;;;;;;5097033;28;20080;-61
2023/05/03 03:48:17;;;;;;;;;;;14.30;99.90;;;;;;5097009;28;20469;-61
2023/05/03 03:50:42;;;;;;;;;;;14.30;99.90;;;;;;5097310;28;20510;-61
2023/05/03 03:53:09;;;;;;;;;;;14.30;99.90;;;;;;5097050;28;19989;-61
2023/05/03 03:55:35;;;;;;;;;;;14.40;99.90;;;;;;5096949;28;20495;-61
2023/05/03 03:58:01;;;;;;;;;;;14.40;99.90;;;;;;5097016;28;20012;-61
2023/05/03 04:00:26;;;;;;;;;;;14.50;99.90;;;;;;5096867;28;19989;-61
2023/05/03 04:02:52;;;;;;;;;;;14.50;99.90;;;;;;5096574;28;20014;-61
2023/05/03 04:05:18;;;;;;;;;;;14.50;99.90;;;;;;5097022;28;20000;-61
2023/05/03 04:07:43;;;;;;;;;;;14.60;99.90;;;;;;5096692;28;20447;-61
2023/05/03 04:10:09;;;;;;;;;;;14.60;99.90;;;;;;5096605;28;19985;-61
2023/05/03 04:12:35;;;;;;;;;;;14.60;99.90;;;;;;5096717;28;19985;-61
2023/05/03 04:15:01;;;;;;;;;;;14.60;99.90;;;;;;5096524;28;20351;-61
2023/05/03 04:17:28;;;;;;;;;;;14.60;99.90;;;;;;5096225;28;20009;-61
2023/05/03 04:19:53;;;;;;;;;;;14.70;99.90;;;;;;5096802;28;20389;-62
2023/05/03 04:22:19;;;;;;;;;;;14.70;99.90;;;;;;5096591;28;19993;-61
2023/05/03 04:24:44;;;;;;;;;;;14.70;99.90;;;;;;5096328;28;20083;-61
2023/05/03 04:27:10;;;;;;;;;;;14.80;99.90;;;;;;5095490;28;20031;-61
2023/05/03 04:29:37;;;;;;;;;;;14.70;99.90;;;;;;5096554;28;19996;-61
2023/05/03 04:32:03;;;;;;;;;;;14.60;99.90;;;;;;5095965;28;19989;-62
2023/05/03 04:34:29;;;;;;;;;;;14.50;99.90;;;;;;5096353;28;20465;-61
2023/05/03 04:36:54;;;;;;;;;;;14.60;99.90;;;;;;5096195;28;20004;-61
2023/05/03 04:39:21;;;;;;;;;;;14.60;99.90;;;;;;5095914;28;20077;-60
2023/05/03 04:41:46;;;;;;;;;;;14.70;99.90;;;;;;5095939;28;20007;-60
2023/05/03 04:44:13;;;;;;;;;;;14.80;99.90;;;;;;5096025;28;19985;-61
2023/05/03 04:46:38;;;;;;;;;;;14.70;99.90;;;;;;5095792;28;20047;-61
2023/05/03 04:49:04;;;;;;;;;;;14.80;99.90;;;;;;5096088;28;20016;-61
2023/05/03 04:51:30;;;;;;;;;;;14.90;99.90;;;;;;5095926;28;19988;-60
2023/05/03 04:53:57;;;;;;;;;;;14.90;99.90;;;;;;5095920;28;20072;-60
2023/05/03 04:56:25;;;;;;;;;;;15.00;99.90;;;;;;5095607;28;20166;-60
2023/05/03 04:58:51;;;;;;;;;;;15.00;99.90;;;;;;5095703;28;19985;-61
2023/05/03 05:01:17;;;;;;;;;;;15.00;99.90;;;;;;5095691;28;19995;-61
2023/05/03 05:03:43;;;;;;;;;;;15.10;99.90;;;;;;5095439;28;20487;-61
2023/05/03 05:06:11;;;;;;;;;;;15.00;99.90;;;;;;5084490;28;19992;-61
2023/05/03 05:08:37;;;;;;;;;;;15.10;99.90;;;;;;5075171;28;20096;-61
2023/05/03 05:11:05;;;;;;;;;;;15.20;99.90;;;;;;5075070;28;20444;-62
2023/05/03 05:13:31;;;;;;;;;;;15.20;99.90;;;;;;5075075;28;20443;-60
2023/05/03 05:15:56;;;;;;;;;;;15.20;99.90;;;;;;5074507;28;20080;-60
2023/05/03 05:18:22;;;;;;;;;;;15.30;99.90;;;;;;5074602;28;20056;-61
2023/05/03 05:20:47;;;;;;;;;;;15.40;99.90;;;;;;5074988;28;20000;-61
2023/05/03 05:23:13;;;;;;;;;;;15.50;99.90;;;;;;5075155;28;19985;-60
2023/05/03 05:25:39;;;;;;;;;;;15.60;99.90;;;;;;5074856;28;19991;-61
2023/05/03 05:28:04;;;;;;;;;;;15.70;99.90;;;;;;5073265;28;20080;-61
2023/05/03 05:30:30;;;;;;;;;;;15.80;99.90;;;;;;5074422;28;20032;-60
2023/05/03 05:32:56;;;;;;;;;;;15.90;99.90;;;;;;5075144;28;19996;-60
2023/05/03 05:35:21;;;;;;;;;;;16.00;99.90;;;;;;5074470;28;20440;-61
2023/05/03 05:37:47;;;;;;;;;;;16.10;99.90;;;;;;5074756;28;20032;-60
2023/05/03 05:40:13;;;;;;;;;;;16.10;99.90;;;;;;5074503;28;20503;-61
2023/05/03 05:42:38;;;;;;;;;;;16.10;99.90;;;;;;5074519;28;20352;-60
2023/05/03 05:45:06;;;;;;;;;;;16.20;99.90;;;;;;5074486;28;19997;-60
2023/05/03 05:47:32;;;;;;;;;;;16.40;99.90;;;;;;5074490;28;20086;-60
2023/05/03 05:49:57;;;;;;;;;;;16.60;99.90;;;;;;5074303;28;20033;-60
2023/05/03 05:52:23;;;;;;;;;;;16.70;99.90;;;;;;5073174;28;20015;-61
2023/05/03 05:54:48;;;;;;;;;;;16.90;99.90;;;;;;5072997;28;19992;-61
2023/05/03 05:57:14;;;;;;;;;;;17.00;99.90;;;;;;5073151;28;20092;-61
2023/05/03 05:59:40;;;;;;;;;;;17.10;99.90;;;;;;5073510;28;19991;-61
2023/05/03 06:02:10;;;;;;;;;;;17.20;99.90;;;;;;5073821;28;20068;-61
2023/05/03 06:04:35;;;;;;;;;;;17.40;99.90;;;;;;5073924;28;19989;-60
2023/05/03 06:07:01;;;;;;;;;;;17.50;99.90;;;;;;5074399;28;20036;-61
2023/05/03 06:09:27;;;;;;;;;;;17.60;99.90;;;;;;5073336;28;20035;-61
2023/05/03 06:11:52;;;;;;;;;;;17.80;99.90;;;;;;5072565;28;20072;-60
2023/05/03 06:17:22;;;;;;;;;;;17.90;99.90;;;;;;5073169;28;20016;-60
2023/05/03 06:19:48;;;;;;;;;;;18.00;99.90;;;;;;5091294;28;20489;-62
2023/05/03 06:22:14;;;;;;;;;;;18.20;99.90;;;;;;5092187;28;19985;-61
2023/05/03 06:24:39;;;;;;;;;;;18.20;99.90;;;;;;5089404;28;19993;-61
2023/05/03 06:27:05;;;;;;;;;;;18.30;99.90;;;;;;5093515;28;20508;-61
2023/05/03 06:29:30;;;;;;;;;;;18.40;99.90;;;;;;5094129;28;20028;-61
2023/05/03 06:31:56;;;;;;;;;;;18.40;99.90;;;;;;5094103;28;19989;-60
2023/05/03 06:34:21;;;;;;;;;;;18.50;99.90;;;;;;5093781;28;20043;-61
2023/05/03 06:36:48;;;;;;;;;;;18.70;99.90;;;;;;5093478;28;20536;-62
2023/05/03 06:39:13;;;;;;;;;;;18.70;99.90;;;;;;5093416;28;20374;-60
2023/05/03 06:41:39;;;;;;;;;;;18.80;99.90;;;;;;5093502;28;19984;-60
2023/05/03 06:44:06;;;;;;;;;;;19.00;99.90;;;;;;5093480;28;20493;-62
2023/05/03 06:46:31;;;;;;;;;;;19.30;99.90;;;;;;5091990;28;19992;-61
2023/05/03 06:48:57;;;;;;;;;;;19.90;99.90;;;;;;5092465;28;20374;-62
2023/05/03 06:51:26;;;;;;;;;;;22.20;99.90;;;;;;5093445;28;20084;-61
2023/05/03 06:53:56;;;;;;;;;;;24.40;80.60;;;;;;5093503;28;20066;-64
2023/05/03 06:56:22;;;;;;;;;;;25.60;66.00;;;;;;5072818;28;20000;-63
2023/05/03 06:58:48;;;;;;;;;;;24.90;66.40;;;;;;5074639;28;20032;-62
2023/05/03 07:01:14;;;;;;;;;;;25.60;65.50;;;;;;5088949;28;20450;-60
2023/05/03 07:03:39;;;;;;;;;;;25.50;62.00;;;;;;5083914;28;20482;-62
2023/05/03 07:06:05;;;;;;;;;;;24.80;63.90;;;;;;5072665;28;20331;-63
2023/05/03 07:08:31;;;;;;;;;;;24.20;66.90;;;;;;5082984;28;19995;-62
2023/05/03 07:10:56;;;;;;;;;;;23.40;69.60;;;;;;5090977;28;20016;-60
2023/05/03 07:13:22;;;;;;;;;;;22.60;77.80;;;;;;5090306;28;20025;-61
2023/05/03 07:15:49;;;;;;;;;;;22.10;81.20;;;;;;5090956;28;20050;-61
2023/05/03 07:18:15;;;;;;;;;;;21.80;91.30;;;;;;5089400;28;20013;-60
2023/05/03 07:20:40;;;;;;;;;;;21.70;93.50;;;;;;5090382;28;20439;-62
2023/05/03 07:23:06;;;;;;;;;;;21.60;93.00;;;;;;5091433;28;20003;-61
2023/05/03 07:25:41;;;;;;;;;;;21.40;90.30;;;;;;5091186;28;20100;-62
2023/05/03 07:28:08;;;;;;;;;;;21.20;94.40;;;;;;5091341;28;20399;-60
2023/05/03 07:30:33;;;;;;;;;;;21.00;96.10;;;;;;5093206;28;19985;-60
2023/05/03 07:32:59;;;;;;;;;;;21.20;95.70;;;;;;5083158;28;19989;-61
2023/05/03 07:35:36;;;;;;;;;;;21.20;98.90;;;;;;5091715;28;20486;-61
2023/05/03 07:38:02;;;;;;;;;;;21.30;97.60;;;;;;5072745;28;20378;-62
2023/05/03 07:40:33;;;;;;;;;;;21.40;98.10;;;;;;5072576;28;20116;-62
2023/05/03 07:42:59;;;;;;;;;;;21.50;95.30;;;;;;5088892;28;20409;-62
2023/05/03 07:45:36;;;;;;;;;;;21.40;98.20;;;;;;5080573;28;19990;-62
2023/05/03 07:48:03;;;;;;;;;;;21.60;96.40;;;;;;5077744;28;19996;-64
2023/05/03 07:50:34;;;;;;;;;;;21.70;92.90;;;;;;5091845;28;20049;-60
2023/05/03 07:53:00;;;;;;;;;;;21.70;92.60;;;;;;5088639;28;20469;-63
2023/05/03 07:55:25;;;;;;;;;;;21.60;95.70;;;;;;5089882;28;19989;-68
2023/05/03 07:57:57;;;;;;;;;;;21.40;94.50;;;;;;5086881;28;20009;-63
2023/05/03 08:00:22;;;;;;;;;;;21.40;95.50;;;;;;5088360;28;19985;-61
2023/05/03 08:02:48;;;;;;;;;;;21.20;93.10;;;;;;5092265;28;20366;-62
2023/05/03 08:05:14;;;;;;;;;;;21.10;94.10;;;;;;5094818;28;19993;-64
2023/05/03 08:07:40;;;;;;;;;;;21.00;95.80;;;;;;5093915;28;20442;-63
2023/05/03 08:10:07;;;;;;;;;;;20.90;96.20;;;;;;5093609;28;20016;-63
2023/05/03 08:12:32;;;;;;;;;;;21.10;99.90;;;;;;5094479;28;20431;-61
2023/05/03 08:14:58;;;;;;;;;;;21.60;91.20;;;;;;5093412;28;20080;-64
2023/05/03 08:17:24;;;;;;;;;;;21.70;91.00;;;;;;5094582;28;20054;-63
2023/05/03 08:19:49;;;;;;;;;;;21.60;91.20;;;;;;5094829;28;20088;-61
2023/05/03 08:22:15;;;;;;;;;;;21.40;88.80;;;;;;5092873;28;20035;-63
2023/05/03 08:24:42;;;;;;;;;;;21.40;90.00;;;;;;5094283;28;20443;-64
2023/05/03 08:27:08;;;;;;;;;;;21.40;88.10;;;;;;5093783;28;20035;-63
2023/05/03 08:29:36;;;;;;;;;;;21.20;89.20;;;;;;5094884;28;19988;-63
2023/05/03 08:32:03;;;;;;;;;;;21.10;95.40;;;;;;5093823;28;20031;-63
2023/05/03 08:34:28;;;;;;;;;;;21.10;95.80;;;;;;5093286;28;20238;-62
2023/05/03 08:36:55;;;;;;;;;;;21.00;95.70;;;;;;5091140;28;20054;-60
2023/05/03 08:39:23;;;;;;;;;;;21.10;93.30;;;;;;5073244;28;20025;-63
2023/05/03 08:41:49;;;;;;;;;;;21.10;94.00;;;;;;5072250;28;20043;-63
2023/05/03 08:44:19;;;;;;;;;;;21.30;93.20;;;;;;5069082;28;19986;-61
2023/05/03 08:47:06;;;;;;;;;;;21.30;96.70;;;;;;5082931;28;19996;-64
2023/05/03 08:50:00;;;;;;;;;;;21.20;96.30;;;;;;5096056;28;19996;-65
2023/05/03 08:52:27;;;;;;;;;;;21.20;95.80;;;;;;5079074;28;19989;-61
2023/05/03 08:54:52;;;;;;;;;;;21.20;94.60;;;;;;5081136;28;20100;-64
2023/05/03 08:57:18;;;;;;;;;;;20.90;95.90;;;;;;5082792;28;20009;-64
2023/05/03 08:59:48;;;;;;;;;;;21.10;95.20;;;;;;5077795;28;19994;-64
2023/05/03 09:02:14;;;;;;;;;;;21.40;94.50;;;;;;5096454;28;20000;-64
2023/05/03 09:04:40;;;;;;;;;;;21.60;93.30;;;;;;5081430;28;20025;-65
2023/05/03 09:07:06;;;;;;;;;;;21.60;90.40;;;;;;5085477;28;20032;-62
2023/05/03 09:09:32;;;;;;;;;;;21.70;90.00;;;;;;5108279;28;19993;-67
2023/05/03 09:11:58;;;;;;;;;;;21.60;92.80;;;;;;5091758;28;19996;-66
2023/05/03 09:14:23;;;;;;;;;;;21.60;92.50;;;;;;5086349;28;19989;-65
2023/05/03 09:16:49;;;;;;;;;;;21.60;91.40;;;;;;5091613;28;19985;-65
2023/05/03 09:19:14;;;;;;;;;;;21.70;86.50;;;;;;5085581;28;20057;-66
2023/05/03 09:21:42;;;;;;;;;;;21.70;87.00;;;;;;5077778;28;20033;-68
2023/05/03 09:24:14;;;;;;;;;;;21.60;94.50;;;;;;5080153;28;19993;-64
2023/05/03 09:26:41;;;;;;;;;;;21.60;97.50;;;;;;5095721;28;20028;-67
2023/05/03 09:29:07;;;;;;;;;;;21.60;97.60;;;;;;5091029;28;19981;-62
2023/05/03 09:31:33;;;;;;;;;;;21.50;94.70;;;;;;5096794;28;19997;-63
2023/05/03 09:33:59;;;;;;;;;;;21.60;96.60;;;;;;5090260;28;20032;-61
2023/05/03 09:36:26;;;;;;;;;;;21.70;97.40;;;;;;5082685;28;20066;-64
2023/05/03 09:38:53;;;;;;;;;;;21.60;95.30;;;;;;5085992;28;20299;-63
2023/05/03 09:41:30;;;;;;;;;;;21.50;96.60;;;;;;5084784;28;19997;-63
2023/05/03 09:44:01;;;;;;;;;;;21.40;94.90;;;;;;5078584;28;19996;-64
2023/05/03 09:46:28;;;;;;;;;;;21.20;95.30;;;;;;5087741;28;20037;-62
2023/05/03 09:48:55;;;;;;;;;;;21.30;96.70;;;;;;5087148;28;19989;-65
2023/05/03 09:51:24;;;;;;;;;;;21.30;97.40;;;;;;5075891;28;19993;-63
2023/05/03 09:53:49;;;;;;;;;;;21.60;97.00;;;;;;5082861;28;21159;-64
2023/05/03 09:56:19;;;;;;;;;;;21.80;94.50;;;;;;5079342;28;20001;-64
2023/05/03 09:58:46;;;;;;;;;;;21.80;97.50;;;;;;5073732;28;20006;-62
2023/05/03 10:01:13;;;;;;;;;;;21.80;96.60;;;;;;5083840;28;20042;-63
2023/05/03 10:03:40;;;;;;;;;;;21.70;95.50;;;;;;5078087;28;19993;-63
2023/05/03 10:06:17;;;;;;;;;;;21.60;95.20;;;;;;5089786;28;20081;-64
2023/05/03 10:08:48;;;;;;;;;;;21.40;95.40;;;;;;5074005;28;20038;-63
2023/05/03 10:11:16;;;;;;;;;;;21.30;97.60;;;;;;5079810;28;19993;-64
2023/05/03 10:13:41;;;;;;;;;;;21.10;98.20;;;;;;5068972;28;19986;-64
2023/05/03 10:16:19;;;;;;;;;;;21.00;98.80;;;;;;5084883;28;20424;-64
2023/05/03 10:18:48;;;;;;;;;;;21.10;97.50;;;;;;5084743;28;20008;-65
2023/05/03 10:21:17;;;;;;;;;;;21.10;93.60;;;;;;5085854;28;19993;-63
2023/05/03 10:24:01;;;;;;;;;;;21.10;95.70;;;;;;5090828;28;19992;-63
2023/05/03 10:26:27;;;;;;;;;;;21.10;96.00;;;;;;5088266;28;20000;-66
2023/05/03 10:28:53;;;;;;;;;;;21.00;96.40;;;;;;5090319;28;19989;-63
2023/05/03 10:31:37;;;;;;;;;;;20.90;96.40;;;;;;5074217;28;19997;-64
2023/05/03 10:34:19;;;;;;;;;;;20.80;96.80;;;;;;5082393;28;20058;-62
2023/05/03 10:36:46;;;;;;;;;;;20.80;98.50;;;;;;5076553;28;19990;-64
2023/05/03 10:39:13;;;;;;;;;;;20.70;97.40;;;;;;5090824;28;20020;-65
2023/05/03 10:41:39;;;;;;;;;;;20.70;96.90;;;;;;5083306;28;19994;-63
2023/05/03 10:44:24;;;;;;;;;;;20.60;95.80;;;;;;5080488;28;19996;-63
2023/05/03 10:46:49;;;;;;;;;;;20.50;95.50;;;;;;5084441;28;20000;-64
2023/05/03 10:49:25;;;;;;;;;;;20.50;95.20;;;;;;5074946;28;19998;-63
2023/05/03 10:51:50;;;;;;;;;;;20.40;93.80;;;;;;5086143;28;20087;-62
2023/05/03 10:54:18;;;;;;;;;;;20.30;93.30;;;;;;5081800;28;20080;-61
2023/05/03 10:56:51;;;;;;;;;;;20.20;93.80;;;;;;5090721;28;20079;-62
2023/05/03 10:59:16;;;;;;;;;;;20.10;92.80;;;;;;5088237;28;19993;-62
2023/05/03 11:01:43;;;;;;;;;;;20.00;95.10;;;;;;5090170;28;20329;-64
2023/05/03 11:04:10;;;;;;;;;;;19.90;93.70;;;;;;5076646;28;20019;-67
2023/05/03 11:06:36;;;;;;;;;;;20.00;94.80;;;;;;5080338;28;19993;-64
2023/05/03 11:09:06;;;;;;;;;;;20.00;92.00;;;;;;5088714;28;19989;-64
2023/05/03 11:11:32;;;;;;;;;;;20.10;91.70;;;;;;5080033;28;19997;-62
2023/05/03 11:13:58;;;;;;;;;;;20.10;91.80;;;;;;5085599;28;20023;-61
2023/05/03 11:16:24;;;;;;;;;;;20.10;94.30;;;;;;5086259;28;19989;-65
2023/05/03 11:18:50;;;;;;;;;;;20.10;94.10;;;;;;5074007;28;20449;-64
2023/05/03 11:21:18;;;;;;;;;;;20.20;93.90;;;;;;5080933;28;20541;-66
2023/05/03 11:23:43;;;;;;;;;;;20.20;96.20;;;;;;5072716;28;20292;-68
2023/05/03 11:26:09;;;;;;;;;;;20.20;95.70;;;;;;5080566;28;20000;-67
2023/05/03 11:28:38;;;;;;;;;;;20.20;96.50;;;;;;5087918;28;19985;-64
2023/05/03 11:31:05;;;;;;;;;;;20.30;97.40;;;;;;5090186;28;19985;-69
2023/05/03 11:33:33;;;;;;;;;;;20.40;95.40;;;;;;5081732;28;20299;-66
2023/05/03 11:36:00;;;;;;;;;;;20.50;98.80;;;;;;5083474;28;20103;-64
2023/05/03 11:38:26;;;;;;;;;;;20.60;99.70;;;;;;5084557;28;20069;-63
2023/05/03 11:40:51;;;;;;;;;;;20.70;97.40;;;;;;5084846;28;20419;-63
2023/05/03 11:43:17;;;;;;;;;;;20.90;97.70;;;;;;5093242;28;19989;-62
2023/05/03 11:45:45;;;;;;;;;;;20.90;98.10;;;;;;5083861;28;20343;-62
2023/05/03 11:48:12;;;;;;;;;;;21.10;95.30;;;;;;5085140;28;19993;-64
2023/05/03 11:50:55;;;;;;;;;;;21.50;99.10;;;;;;5094346;28;19989;-63
2023/05/03 11:53:21;;;;;;;;;;;21.60;92.70;;;;;;5083165;28;19993;-64
2023/05/03 11:55:48;;;;;;;;;;;21.60;95.40;;;;;;5081123;28;20001;-61
2023/05/03 11:58:26;;;;;;;;;;;21.80;97.20;;;;;;5073130;28;20005;-62
2023/05/03 12:00:56;;;;;;;;;;;21.90;92.10;;;;;;5078402;28;20119;-62
2023/05/03 12:03:28;;;;;;;;;;;22.00;88.30;;;;;;5094616;28;19996;-62
2023/05/03 12:05:54;;;;;;;;;;;22.20;83.10;;;;;;5093393;28;19995;-61
2023/05/03 12:08:20;;;;;;;;;;;22.20;82.00;;;;;;5110283;28;20164;-61
2023/05/03 12:10:49;;;;;;;;;;;22.20;82.90;;;;;;5089428;28;20080;-62
2023/05/03 12:13:26;;;;;;;;;;;22.20;84.70;;;;;;5073570;28;20261;-61
2023/05/03 12:15:55;;;;;;;;;;;22.10;78.70;;;;;;5083771;28;20015;-61
2023/05/03 12:18:20;;;;;;;;;;;22.00;76.40;;;;;;5089647;28;20479;-61
2023/05/03 12:20:53;;;;;;;;;;;21.80;85.70;;;;;;5090743;28;19992;-61
2023/05/03 12:23:19;;;;;;;;;;;21.70;74.90;;;;;;5092641;28;19985;-62
2023/05/03 12:25:46;;;;;;;;;;;21.60;72.60;;;;;;5090598;28;20431;-61
2023/05/03 12:28:11;;;;;;;;;;;21.40;69.40;;;;;;5090587;28;20466;-62
2023/05/03 12:30:37;;;;;;;;;;;21.30;71.60;;;;;;5090413;28;19985;-62
2023/05/03 12:33:02;;;;;;;;;;;21.40;70.90;;;;;;5092045;28;20138;-61
2023/05/03 12:35:28;;;;;;;;;;;21.50;74.80;;;;;;5091584;28;20598;-62
2023/05/03 12:37:53;;;;;;;;;;;21.60;74.20;;;;;;5092411;28;20058;-61
2023/05/03 12:40:19;;;;;;;;;;;21.70;73.70;;;;;;5093193;28;20028;-62
2023/05/03 12:42:44;;;;;;;;;;;21.80;67.70;;;;;;5094366;28;20000;-62
2023/05/03 12:45:11;;;;;;;;;;;21.80;66.30;;;;;;5094319;28;20594;-61
2023/05/03 12:47:37;;;;;;;;;;;21.90;72.30;;;;;;5094002;28;20340;-62
2023/05/03 12:50:03;;;;;;;;;;;21.90;68.10;;;;;;5095624;28;19996;-62
2023/05/03 12:52:30;;;;;;;;;;;21.90;62.70;;;;;;5095880;28;19993;-62
2023/05/03 12:54:56;;;;;;;;;;;21.90;67.40;;;;;;5096117;28;20012;-62
2023/05/03 12:57:22;;;;;;;;;;;22.00;64.80;;;;;;5095631;28;20008;-62
2023/05/03 12:59:52;;;;;;;;;;;22.10;64.20;;;;;;5094690;28;19993;-61
2023/05/03 13:02:18;;;;;;;;;;;22.20;65.70;;;;;;5094474;28;20042;-62
2023/05/03 13:04:43;;;;;;;;;;;22.20;67.80;;;;;;5095347;28;19985;-62
2023/05/03 13:07:13;;;;;;;;;;;22.30;63.50;;;;;;5095602;28;20083;-62
2023/05/03 13:09:39;;;;;;;;;;;22.10;64.30;;;;;;5093663;28;20386;-62
2023/05/03 13:12:05;;;;;;;;;;;22.20;64.10;;;;;;5094193;28;19996;-61
2023/05/03 13:14:31;;;;;;;;;;;22.30;67.00;;;;;;5094381;28;19985;-62
2023/05/03 13:16:56;;;;;;;;;;;22.50;64.10;;;;;;5094961;28;19997;-61
2023/05/03 13:19:22;;;;;;;;;;;22.50;62.80;;;;;;5094519;28;20523;-61
2023/05/03 13:21:48;;;;;;;;;;;22.60;61.20;;;;;;5094933;28;20193;-62
2023/05/03 13:24:13;;;;;;;;;;;22.60;60.60;;;;;;5095218;28;20080;-62
2023/05/03 13:26:39;;;;;;;;;;;22.40;62.40;;;;;;5095208;28;20066;-62
2023/05/03 13:29:04;;;;;;;;;;;22.40;64.20;;;;;;5094931;28;19992;-62
2023/05/03 13:31:30;;;;;;;;;;;22.30;62.50;;;;;;5095252;28;19985;-62
2023/05/03 13:33:56;;;;;;;;;;;22.30;65.20;;;;;;5095046;28;20397;-62
2023/05/03 13:36:25;;;;;;;;;;;22.40;66.70;;;;;;5094978;28;19985;-62
2023/05/03 13:38:51;;;;;;;;;;;22.30;65.80;;;;;;5094918;28;20048;-61
2023/05/03 13:41:17;;;;;;;;;;;22.30;66.90;;;;;;5094973;28;20439;-62
2023/05/03 13:43:43;;;;;;;;;;;22.10;66.90;;;;;;5094899;28;19989;-62
2023/05/03 13:46:08;;;;;;;;;;;22.10;64.90;;;;;;5094889;28;20465;-62
2023/05/03 13:48:34;;;;;;;;;;;22.20;66.60;;;;;;5094931;28;19985;-62
2023/05/03 13:51:07;;;;;;;;;;;22.20;68.00;;;;;;5094737;28;19992;-61
2023/05/03 13:53:33;;;;;;;;;;;22.30;66.30;;;;;;5094776;28;19992;-61
2023/05/03 13:55:59;;;;;;;;;;;22.30;65.10;;;;;;5094666;28;19989;-61
2023/05/03 13:58:24;;;;;;;;;;;22.20;64.40;;;;;;5094364;28;20004;-62
2023/05/03 14:00:50;;;;;;;;;;;22.20;61.10;;;;;;5094583;28;20042;-62
2023/05/03 14:03:16;;;;;;;;;;;22.10;61.30;;;;;;5094623;28;20022;-61
2023/05/03 14:05:41;;;;;;;;;;;22.10;60.50;;;;;;5094458;28;19985;-61
2023/05/03 14:08:07;;;;;;;;;;;22.00;61.60;;;;;;5094678;28;20385;-62
2023/05/03 14:10:33;;;;;;;;;;;22.00;61.00;;;;;;5094739;28;20328;-62
2023/05/03 14:12:59;;;;;;;;;;;21.50;62.10;;;;;;5094222;28;19989;-61
2023/05/03 14:15:24;;;;;;;;;;;21.20;66.50;;;;;;5094292;28;19985;-62
2023/05/03 14:17:50;;;;;;;;;;;21.10;65.80;;;;;;5094323;28;20027;-62